Time;durP1;ratioP1;P1;durP2;ratioP2;P2;SDS_P1;SDS_P2;PMS_P1;PMS_P2;Temp;Humidity;BMP_temperature;BMP_pressure;BME280_temperature;BME280_humidity;BME280_pressure;Samples;Min_cycle;Max_cycle;Signal;HPM_P1;HPM_P2
2023/07/04 00:01:41;;;;;;;2.55;1.42;;;19.10;99.90;;;;;;5074571;28;20020;-75
2023/07/04 00:04:08;;;;;;;3.88;1.70;;;19.00;99.90;;;;;;5074676;28;20028;-75
2023/07/04 00:06:36;;;;;;;3.22;1.05;;;19.00;99.90;;;;;;5074948;28;20412;-76
2023/07/04 00:09:04;;;;;;;2.50;1.27;;;19.00;99.90;;;;;;5075823;28;20024;-76
2023/07/04 00:11:30;;;;;;;2.15;1.20;;;19.00;99.90;;;;;;5073786;28;20054;-76
2023/07/04 00:13:56;;;;;;;1.90;1.15;;;19.00;99.90;;;;;;5074397;28;20462;-76
2023/07/04 00:16:22;;;;;;;3.20;1.13;;;19.00;99.90;;;;;;5074890;28;20025;-76
2023/07/04 00:18:48;;;;;;;3.97;1.10;;;19.00;99.90;;;;;;5074312;28;20360;-76
2023/07/04 00:21:17;;;;;;;2.00;1.13;;;19.00;99.90;;;;;;5073936;28;20034;-77
2023/07/04 00:23:45;;;;;;;1.80;0.95;;;19.00;99.90;;;;;;5074424;28;20024;-76
2023/07/04 00:26:15;;;;;;;2.08;1.20;;;19.00;99.90;;;;;;5075269;28;20047;-77
2023/07/04 00:28:42;;;;;;;5.45;1.30;;;19.00;99.90;;;;;;5073774;28;20123;-76
2023/07/04 00:31:09;;;;;;;4.43;1.30;;;19.00;99.90;;;;;;5074097;28;20021;-76
2023/07/04 00:33:35;;;;;;;3.25;1.08;;;19.00;99.90;;;;;;5074616;28;20024;-75
2023/07/04 00:36:05;;;;;;;4.22;1.30;;;19.00;99.90;;;;;;5074044;28;20024;-76
2023/07/04 00:38:32;;;;;;;2.08;1.02;;;19.10;99.90;;;;;;5073555;28;20021;-76
2023/07/04 00:41:08;;;;;;;1.85;1.10;;;19.10;99.90;;;;;;5073763;28;20021;-76
2023/07/04 00:44:09;;;;;;;2.65;0.90;;;19.10;99.90;;;;;;5073463;28;20056;-76
2023/07/04 00:46:40;;;;;;;1.80;0.93;;;19.10;99.90;;;;;;5074561;28;20028;-76
2023/07/04 00:49:14;;;;;;;;;;;19.10;99.90;;;;;;5074235;28;20040;-76
2023/07/04 00:51:42;;;;;;;2.38;0.98;;;19.10;99.90;;;;;;5074934;28;20364;-79
2023/07/04 00:54:08;;;;;;;3.00;1.10;;;19.10;99.90;;;;;;5082359;28;20111;-80
2023/07/04 00:56:34;;;;;;;4.72;1.63;;;19.10;99.90;;;;;;5074168;28;20517;-80
2023/07/04 00:59:00;;;;;;;1.58;1.20;;;19.10;99.90;;;;;;5074401;28;20032;-81
2023/07/04 01:01:27;;;;;;;3.28;1.27;;;19.10;99.90;;;;;;5087841;28;20141;-79
2023/07/04 01:03:56;;;;;;;2.55;0.90;;;19.10;99.90;;;;;;5094601;28;20078;-78
2023/07/04 01:06:29;;;;;;;1.40;0.88;;;19.10;99.90;;;;;;5093728;28;20055;-77
2023/07/04 01:09:00;;;;;;;1.90;1.00;;;19.00;99.90;;;;;;5083277;28;20066;-78
2023/07/04 01:11:33;;;;;;;1.88;0.98;;;19.10;99.90;;;;;;5072821;28;20031;-77
2023/07/04 01:13:59;;;;;;;2.65;1.17;;;19.00;99.90;;;;;;5073596;28;20533;-77
2023/07/04 01:16:25;;;;;;;2.13;0.80;;;19.00;99.90;;;;;;5073046;28;20111;-76
2023/07/04 01:18:55;;;;;;;1.40;1.00;;;19.00;99.90;;;;;;5070451;28;20040;-78
2023/07/04 01:21:25;;;;;;;4.00;1.10;;;19.00;99.90;;;;;;5091870;28;20028;-77
2023/07/04 01:24:06;;;;;;;2.80;0.75;;;19.00;99.90;;;;;;5093993;28;20027;-77
2023/07/04 01:26:39;;;;;;;1.42;1.05;;;19.00;99.90;;;;;;5093398;28;20115;-77
2023/07/04 01:29:09;;;;;;;2.80;1.40;;;19.00;99.90;;;;;;5093761;28;20060;-77
2023/07/04 01:31:35;;;;;;;1.45;0.82;;;19.00;99.90;;;;;;5093293;28;20035;-77
2023/07/04 01:34:06;;;;;;;2.78;1.02;;;19.00;99.90;;;;;;5093298;28;20073;-77
2023/07/04 01:36:34;;;;;;;1.88;0.98;;;19.00;99.90;;;;;;5093099;28;20024;-78
2023/07/04 01:39:01;;;;;;;1.85;1.15;;;18.90;99.90;;;;;;5094674;28;20509;-77
2023/07/04 01:41:28;;;;;;;1.90;1.00;;;18.90;99.90;;;;;;5092638;28;20043;-78
2023/07/04 01:44:06;;;;;;;1.95;1.17;;;18.90;99.90;;;;;;5093299;28;20035;-77
2023/07/04 01:46:33;;;;;;;2.22;0.93;;;18.90;99.90;;;;;;5092816;28;20024;-76
2023/07/04 01:48:59;;;;;;;2.25;1.00;;;18.80;99.90;;;;;;5094404;28;20016;-77
2023/07/04 01:51:34;;;;;;;3.28;1.15;;;18.90;99.90;;;;;;5092624;28;20368;-78
2023/07/04 01:54:00;;;;;;;1.85;0.85;;;18.80;99.90;;;;;;5093001;28;20055;-79
2023/07/04 01:56:28;;;;;;;1.45;1.00;;;18.90;99.90;;;;;;5092218;28;20031;-80
2023/07/04 01:58:53;;;;;;;1.30;1.00;;;18.80;99.90;;;;;;5094319;28;20020;-79
2023/07/04 02:01:19;;;;;;;2.22;0.98;;;18.80;99.90;;;;;;5092602;28;20026;-79
2023/07/04 02:03:44;;;;;;;2.40;1.02;;;18.80;99.90;;;;;;5092930;28;20042;-79
2023/07/04 02:06:10;;;;;;;2.05;1.10;;;18.80;99.90;;;;;;5093140;28;20463;-79
2023/07/04 02:08:36;;;;;;;1.45;0.95;;;18.80;99.90;;;;;;5092534;28;20024;-79
2023/07/04 02:11:02;;;;;;;2.53;1.08;;;18.70;99.90;;;;;;5092840;28;20016;-78
2023/07/04 02:13:28;;;;;;;1.20;1.00;;;18.70;99.90;;;;;;5091903;28;20027;-78
2023/07/04 02:15:53;;;;;;;2.75;1.08;;;18.70;99.90;;;;;;5092541;28;20445;-78
2023/07/04 02:18:19;;;;;;;2.20;1.10;;;18.60;99.90;;;;;;5092336;28;20403;-80
2023/07/04 02:20:44;;;;;;;2.50;0.98;;;18.70;99.90;;;;;;5092666;28;20020;-78
2023/07/04 02:23:10;;;;;;;0.98;0.80;;;18.60;99.90;;;;;;5092688;28;20052;-78
2023/07/04 02:25:40;;;;;;;2.42;1.13;;;18.60;99.90;;;;;;5093262;28;20039;-78
2023/07/04 02:28:06;;;;;;;2.28;1.00;;;18.60;99.90;;;;;;5092245;28;20114;-78
2023/07/04 02:30:31;;;;;;;2.08;1.20;;;18.60;99.90;;;;;;5091715;28;20111;-79
2023/07/04 02:32:57;;;;;;;1.70;1.15;;;18.60;99.90;;;;;;5093911;28;20020;-79
2023/07/04 02:35:23;;;;;;;1.63;0.80;;;18.60;99.90;;;;;;5092195;28;20468;-79
2023/07/04 02:37:49;;;;;;;1.38;0.90;;;18.60;99.90;;;;;;5075449;28;20012;-79
2023/07/04 02:40:14;;;;;;;2.55;1.05;;;18.60;99.90;;;;;;5072010;28;20027;-78
2023/07/04 02:42:40;;;;;;;1.48;0.85;;;18.50;99.90;;;;;;5071373;28;20040;-79
2023/07/04 02:45:08;;;;;;;1.42;1.05;;;18.50;99.90;;;;;;5072036;28;20039;-79
2023/07/04 02:47:33;;;;;;;1.67;0.90;;;18.50;99.90;;;;;;5071504;28;20115;-78
2023/07/04 02:49:59;;;;;;;1.20;0.80;;;18.50;99.90;;;;;;5072129;28;20116;-78
2023/07/04 02:52:25;;;;;;;1.27;0.95;;;18.50;99.90;;;;;;5071614;28;20029;-78
2023/07/04 02:54:51;;;;;;;2.65;1.00;;;18.50;99.90;;;;;;5073299;28;20028;-78
2023/07/04 02:57:18;;;;;;;1.80;1.13;;;18.50;99.90;;;;;;5073753;28;20031;-78
2023/07/04 02:59:44;;;;;;;2.20;1.05;;;18.50;99.90;;;;;;5078413;28;20108;-79
2023/07/04 03:02:10;;;;;;;3.78;1.30;;;18.50;99.90;;;;;;5073745;28;20034;-78
2023/07/04 03:04:36;;;;;;;1.20;1.00;;;18.50;99.90;;;;;;5072075;28;20024;-79
2023/07/04 03:07:03;;;;;;;3.42;1.08;;;18.50;99.90;;;;;;5071760;28;20028;-79
2023/07/04 03:09:29;;;;;;;1.65;1.10;;;18.50;99.90;;;;;;5071220;28;20510;-78
2023/07/04 03:11:54;;;;;;;2.10;1.48;;;18.50;99.90;;;;;;5071515;28;20025;-79
2023/07/04 03:14:20;;;;;;;2.03;1.13;;;18.40;99.90;;;;;;5071570;28;20032;-79
2023/07/04 03:16:46;;;;;;;3.78;1.35;;;18.40;99.90;;;;;;5071061;28;20021;-78
2023/07/04 03:19:11;;;;;;;1.60;1.27;;;18.40;99.90;;;;;;5071459;28;20058;-79
2023/07/04 03:21:37;;;;;;;2.58;1.20;;;18.40;99.90;;;;;;5070528;28;20457;-78
2023/07/04 03:24:03;;;;;;;2.17;1.20;;;18.30;99.90;;;;;;5071400;28;20028;-78
2023/07/04 03:26:28;;;;;;;4.32;1.30;;;18.20;99.90;;;;;;5070713;28;20028;-78
2023/07/04 03:28:54;;;;;;;3.47;1.25;;;18.30;99.90;;;;;;5071309;28;20016;-78
2023/07/04 03:31:19;;;;;;;3.00;1.30;;;18.30;99.90;;;;;;5070994;28;20450;-78
2023/07/04 03:33:45;;;;;;;3.63;1.33;;;18.20;99.90;;;;;;5074029;28;20032;-79
2023/07/04 03:36:11;;;;;;;2.53;1.55;;;18.20;99.90;;;;;;5076743;28;20031;-78
2023/07/04 03:38:36;;;;;;;2.95;1.40;;;18.20;99.90;;;;;;5074740;28;20025;-76
2023/07/04 03:41:02;;;;;;;1.80;1.08;;;18.20;99.90;;;;;;5075197;28;20115;-77
2023/07/04 03:43:28;;;;;;;4.20;1.48;;;18.20;99.90;;;;;;5076227;28;20048;-77
2023/07/04 03:45:53;;;;;;;2.58;1.50;;;18.20;99.90;;;;;;5074424;28;20020;-76
2023/07/04 03:48:20;;;;;;;1.45;1.02;;;18.10;99.90;;;;;;5074986;28;20016;-76
2023/07/04 03:50:46;;;;;;;1.95;1.00;;;18.10;99.90;;;;;;5074492;28;20058;-76
2023/07/04 03:53:11;;;;;;;1.75;1.27;;;18.10;99.90;;;;;;5074978;28;20020;-77
2023/07/04 03:55:37;;;;;;;3.85;1.55;;;18.10;99.90;;;;;;5074457;28;20020;-76
2023/07/04 03:58:03;;;;;;;2.40;1.52;;;18.10;99.90;;;;;;5075103;28;20017;-77
2023/07/04 04:00:28;;;;;;;4.07;1.48;;;18.00;99.90;;;;;;5075483;28;20481;-77
2023/07/04 04:02:54;;;;;;;3.50;1.40;;;18.00;99.90;;;;;;5075861;28;20450;-76
2023/07/04 04:05:20;;;;;;;4.72;1.33;;;18.00;99.90;;;;;;5074611;28;20036;-77
2023/07/04 04:07:48;;;;;;;3.72;1.35;;;18.10;99.90;;;;;;5075400;28;20017;-77
2023/07/04 04:10:17;;;;;;;3.63;1.30;;;18.00;99.90;;;;;;5074802;28;20111;-77
2023/07/04 04:12:43;;;;;;;3.50;1.40;;;18.00;99.90;;;;;;5074123;28;20032;-77
2023/07/04 04:15:09;;;;;;;3.28;1.30;;;18.00;99.90;;;;;;5075534;28;20029;-77
2023/07/04 04:17:35;;;;;;;2.97;1.45;;;18.00;99.90;;;;;;5074684;28;20028;-77
2023/07/04 04:20:04;;;;;;;2.42;1.27;;;18.00;99.90;;;;;;5074030;28;20469;-77
2023/07/04 04:22:30;;;;;;;4.78;1.25;;;18.00;99.90;;;;;;5074561;28;20040;-77
2023/07/04 04:24:56;;;;;;;2.88;1.45;;;18.00;99.90;;;;;;5075344;28;20458;-77
2023/07/04 04:27:26;;;;;;;3.80;1.63;;;18.10;99.90;;;;;;5074259;28;20020;-77
2023/07/04 04:29:52;;;;;;;3.00;1.40;;;18.10;99.90;;;;;;5074609;28;20540;-77
2023/07/04 04:32:18;;;;;;;4.15;1.55;;;18.10;99.90;;;;;;5074350;28;20043;-77
2023/07/04 04:34:44;;;;;;;4.57;1.67;;;18.20;99.90;;;;;;5073840;28;20461;-76
2023/07/04 04:37:09;;;;;;;3.58;1.40;;;18.20;99.90;;;;;;5075429;28;20027;-77
2023/07/04 04:39:36;;;;;;;3.47;1.65;;;18.20;99.90;;;;;;5073539;28;20039;-77
2023/07/04 04:42:02;;;;;;;5.32;1.67;;;18.20;99.90;;;;;;5075327;28;20040;-77
2023/07/04 04:44:27;;;;;;;4.10;1.83;;;18.20;99.90;;;;;;5072857;28;20037;-77
2023/07/04 04:46:53;;;;;;;3.03;1.45;;;18.20;99.90;;;;;;5073723;28;20438;-76
2023/07/04 04:49:18;;;;;;;2.58;1.63;;;18.20;99.90;;;;;;5075128;28;20017;-78
2023/07/04 04:51:44;;;;;;;3.55;1.90;;;18.30;99.90;;;;;;5073655;28;20017;-76
2023/07/04 04:54:14;;;;;;;4.28;1.50;;;18.30;99.90;;;;;;5074140;28;20091;-76
2023/07/04 04:56:44;;;;;;;2.92;1.75;;;18.30;99.90;;;;;;5073484;28;20055;-77
2023/07/04 04:59:11;;;;;;;4.80;2.08;;;18.30;99.90;;;;;;5074875;28;20465;-76
2023/07/04 05:01:37;;;;;;;4.30;1.83;;;18.30;99.90;;;;;;5072872;28;20032;-77
2023/07/04 05:04:03;;;;;;;3.35;1.90;;;18.30;99.90;;;;;;5073766;28;20102;-77
2023/07/04 05:06:31;;;;;;;2.72;1.67;;;18.40;99.90;;;;;;5073535;28;20360;-77
2023/07/04 05:08:56;;;;;;;3.25;1.90;;;18.40;99.90;;;;;;5074668;28;20438;-77
2023/07/04 05:11:22;;;;;;;4.68;1.88;;;18.40;99.90;;;;;;5073466;28;20048;-77
2023/07/04 05:13:49;;;;;;;3.40;1.67;;;18.40;99.90;;;;;;5072634;28;20041;-76
2023/07/04 05:16:19;;;;;;;3.45;1.90;;;18.50;99.90;;;;;;5073332;28;20024;-76
2023/07/04 05:18:46;;;;;;;2.67;1.60;;;18.50;99.90;;;;;;5072715;28;20439;-77
2023/07/04 05:21:13;;;;;;;4.05;1.75;;;18.50;99.90;;;;;;5073314;28;20025;-76
2023/07/04 05:23:41;;;;;;;2.20;1.35;;;18.50;99.90;;;;;;5072508;28;20082;-77
2023/07/04 05:26:11;;;;;;;2.25;1.63;;;18.50;99.90;;;;;;5073157;28;20055;-76
2023/07/04 05:28:37;;;;;;;3.10;1.55;;;18.50;99.90;;;;;;5072489;28;20032;-77
2023/07/04 05:31:08;;;;;;;3.95;1.60;;;18.50;99.90;;;;;;5073112;28;20020;-76
2023/07/04 05:33:34;;;;;;;2.57;1.30;;;18.60;99.90;;;;;;5072664;28;20369;-76
2023/07/04 05:36:09;;;;;;;2.35;1.35;;;18.50;99.90;;;;;;5073951;28;20021;-76
2023/07/04 05:38:35;;;;;;;3.17;1.63;;;18.50;99.90;;;;;;5072195;28;20427;-77
2023/07/04 05:41:01;;;;;;;3.55;1.90;;;18.60;99.90;;;;;;5072887;28;20030;-76
2023/07/04 05:43:28;;;;;;;4.18;1.50;;;18.60;99.90;;;;;;5074034;28;20055;-76
2023/07/04 05:45:54;;;;;;;2.20;1.38;;;18.60;99.90;;;;;;5072246;28;20414;-76
2023/07/04 05:48:20;;;;;;;4.47;1.83;;;18.60;99.90;;;;;;5073047;28;20027;-78
2023/07/04 05:50:54;;;;;;;6.30;1.63;;;18.60;99.90;;;;;;5072708;28;20028;-78
2023/07/04 05:53:23;;;;;;;5.43;1.60;;;18.60;99.90;;;;;;5074080;28;20116;-78
2023/07/04 05:55:49;;;;;;;4.43;1.70;;;18.60;99.90;;;;;;5074376;28;20021;-78
2023/07/04 05:58:15;;;;;;;5.53;1.88;;;18.70;99.90;;;;;;5072942;28;20024;-77
2023/07/04 06:00:41;;;;;;;3.83;1.55;;;18.70;99.90;;;;;;5071946;28;20353;-78
2023/07/04 06:03:06;;;;;;;4.00;1.58;;;18.80;99.90;;;;;;5073755;28;20104;-77
2023/07/04 06:05:38;;;;;;;4.43;1.67;;;18.80;99.90;;;;;;5072349;28;20032;-77
2023/07/04 06:08:03;;;;;;;;;;;18.80;99.90;;;;;;5073062;28;20022;-77
2023/07/04 06:10:29;;;;;;;4.68;1.48;;;18.80;99.90;;;;;;5089326;28;19900;-77
2023/07/04 06:12:55;;;;;;;5.43;1.50;;;18.80;99.90;;;;;;5071928;28;20024;-77
2023/07/04 06:15:20;;;;;;;6.18;1.70;;;18.80;99.90;;;;;;5072117;28;20066;-77
2023/07/04 06:17:46;;;;;;;5.15;1.85;;;18.80;99.90;;;;;;5072815;28;20024;-77
2023/07/04 06:20:12;;;;;;;3.53;1.50;;;18.80;99.90;;;;;;5073524;28;20384;-77
2023/07/04 06:22:37;;;;;;;4.78;2.00;;;18.90;99.90;;;;;;5071642;28;20027;-78
2023/07/04 06:25:04;;;;;;;6.75;1.83;;;18.90;99.90;;;;;;5072106;28;20028;-77
2023/07/04 06:27:30;;;;;;;4.93;1.90;;;18.90;99.90;;;;;;5066831;28;20417;-80
2023/07/04 06:29:56;;;;;;;4.72;1.33;;;19.00;99.90;;;;;;5072725;28;20060;-77
2023/07/04 06:32:22;;;;;;;4.13;1.60;;;19.00;99.90;;;;;;5071645;28;20024;-76
2023/07/04 06:34:47;;;;;;;6.38;1.90;;;19.00;99.90;;;;;;5071537;28;20099;-76
2023/07/04 06:37:13;;;;;;;4.80;1.88;;;19.10;99.90;;;;;;5072721;28;20120;-77
2023/07/04 06:39:38;;;;;;;5.85;1.88;;;19.10;99.90;;;;;;5071255;28;20021;-77
2023/07/04 06:42:04;;;;;;;2.88;1.52;;;19.10;99.90;;;;;;5078698;28;20048;-77
2023/07/04 06:44:30;;;;;;;8.07;1.77;;;19.20;99.90;;;;;;5071888;28;20481;-77
2023/07/04 06:46:56;;;;;;;7.57;2.20;;;19.20;99.90;;;;;;5079646;28;20122;-78
2023/07/04 06:49:21;;;;;;;9.13;2.28;;;19.20;99.90;;;;;;5093056;28;20024;-77
2023/07/04 06:51:47;;;;;;;7.50;2.15;;;19.10;99.90;;;;;;5084374;28;20040;-78
2023/07/04 06:54:12;;;;;;;6.45;2.13;;;19.20;99.90;;;;;;5071557;28;20031;-77
2023/07/04 06:56:38;;;;;;;4.50;1.98;;;19.20;99.90;;;;;;5077512;28;20016;-76
2023/07/04 06:59:04;;;;;;;6.70;2.58;;;19.20;99.90;;;;;;5083224;28;20044;-76
2023/07/04 07:01:32;;;;;;;4.25;1.98;;;19.20;99.90;;;;;;5076492;28;20016;-76
2023/07/04 07:03:59;;;;;;;3.53;1.50;;;19.20;99.90;;;;;;5075037;28;20063;-77
2023/07/04 07:06:25;;;;;;;8.35;2.03;;;19.30;99.90;;;;;;5092290;28;20043;-77
2023/07/04 07:08:51;;;;;;;6.93;2.10;;;19.30;99.90;;;;;;5083982;28;20031;-77
2023/07/04 07:11:18;;;;;;;7.03;2.00;;;19.30;99.90;;;;;;5070818;28;20029;-77
2023/07/04 07:13:46;;;;;;;5.45;2.35;;;19.30;99.90;;;;;;5071124;28;20040;-77
2023/07/04 07:16:16;;;;;;;6.45;2.10;;;19.30;99.90;;;;;;5071983;28;20023;-77
2023/07/04 07:18:44;;;;;;;4.45;2.03;;;19.40;99.90;;;;;;5087016;28;20353;-78
2023/07/04 07:21:13;;;;;;;6.93;2.60;;;19.50;99.90;;;;;;5071736;28;20024;-78
2023/07/04 07:23:39;;;;;;;4.35;2.15;;;19.50;99.90;;;;;;5079415;28;20028;-78
2023/07/04 07:26:07;;;;;;;6.95;2.30;;;19.50;99.90;;;;;;5091428;28;20020;-78
2023/07/04 07:28:39;;;;;;;8.52;2.42;;;19.60;99.90;;;;;;5091413;28;20047;-79
2023/07/04 07:31:06;;;;;;;4.50;2.00;;;19.60;99.90;;;;;;5080716;28;20107;-78
2023/07/04 07:33:32;;;;;;;5.85;2.13;;;19.60;99.90;;;;;;5086151;28;20455;-78
2023/07/04 07:35:59;;;;;;;6.40;2.25;;;19.70;99.90;;;;;;5074810;28;20035;-78
2023/07/04 07:38:26;;;;;;;4.75;2.15;;;19.80;99.90;;;;;;5089116;28;20021;-78
2023/07/04 07:40:53;;;;;;;6.35;2.20;;;19.90;99.90;;;;;;5077595;28;20024;-78
2023/07/04 07:43:19;;;;;;;5.07;2.20;;;19.90;99.90;;;;;;5081789;28;20056;-78
2023/07/04 07:45:46;;;;;;;8.05;2.25;;;20.00;99.90;;;;;;5085531;28;20021;-78
2023/07/04 07:48:12;;;;;;;8.38;2.40;;;20.00;99.90;;;;;;5074991;28;20035;-78
2023/07/04 07:50:38;;;;;;;6.78;2.53;;;20.00;99.90;;;;;;5086092;28;20012;-79
2023/07/04 07:53:04;;;;;;;7.75;2.50;;;20.10;99.90;;;;;;5079974;28;20031;-78
2023/07/04 07:55:29;;;;;;;9.70;2.30;;;20.10;99.90;;;;;;5091198;28;20024;-77
2023/07/04 07:57:55;;;;;;;5.97;2.20;;;20.20;99.90;;;;;;5076088;28;20523;-77
2023/07/04 08:00:20;;;;;;;7.60;2.33;;;20.20;99.90;;;;;;5070743;28;20108;-78
2023/07/04 08:02:46;;;;;;;9.45;2.45;;;20.20;99.90;;;;;;5075039;28;20032;-77
2023/07/04 08:05:11;;;;;;;8.43;2.45;;;20.20;99.90;;;;;;5079988;28;20031;-77
2023/07/04 08:07:37;;;;;;;7.22;2.42;;;20.20;99.90;;;;;;5077754;28;20032;-79
2023/07/04 08:10:03;;;;;;;7.60;2.25;;;20.20;99.90;;;;;;5089023;28;20107;-78
2023/07/04 08:12:28;;;;;;;7.13;2.28;;;20.30;99.90;;;;;;5072135;28;20024;-78
2023/07/04 08:14:54;;;;;;;9.02;2.40;;;20.40;99.90;;;;;;5069314;28;20037;-78
2023/07/04 08:17:21;;;;;;;6.75;2.05;;;20.40;99.90;;;;;;5071267;28;20020;-79
2023/07/04 08:19:46;;;;;;;7.28;2.25;;;20.50;99.90;;;;;;5073433;28;20027;-79
2023/07/04 08:22:12;;;;;;;6.82;2.60;;;20.50;99.90;;;;;;5076021;28;20016;-79
2023/07/04 08:24:38;;;;;;;8.10;2.75;;;20.50;99.90;;;;;;5074632;28;20369;-80
2023/07/04 08:27:04;;;;;;;11.23;2.78;;;20.50;99.90;;;;;;5077798;28;20028;-78
2023/07/04 08:29:30;;;;;;;8.85;2.70;;;20.50;99.90;;;;;;5077637;28;20058;-79
2023/07/04 08:31:56;;;;;;;6.80;2.78;;;20.50;99.90;;;;;;5072334;28;20550;-79
2023/07/04 08:34:22;;;;;;;8.05;2.75;;;20.50;99.50;;;;;;5075594;28;20028;-79
2023/07/04 08:36:48;;;;;;;10.95;2.08;;;20.50;99.50;;;;;;5079035;28;20532;-79
2023/07/04 08:39:13;;;;;;;9.48;2.80;;;20.60;99.60;;;;;;5074110;28;20027;-79
2023/07/04 08:41:58;;;;;;;7.35;2.45;;;20.60;98.80;;;;;;5074372;28;20477;-79
2023/07/04 08:44:39;;;;;;;9.85;2.63;;;20.70;99.00;;;;;;5075442;28;20024;-77
2023/07/04 08:47:07;;;;;;;6.60;2.20;;;20.70;99.60;;;;;;5075297;28;20456;-76
2023/07/04 08:49:38;;;;;;;6.72;2.60;;;20.70;99.50;;;;;;5073847;28;20024;-76
2023/07/04 08:52:12;;;;;;;8.75;2.42;;;20.80;99.30;;;;;;5073892;28;20052;-77
2023/07/04 08:54:38;;;;;;;9.68;2.92;;;20.90;99.90;;;;;;5093387;28;20031;-78
2023/07/04 08:57:27;;;;;;;8.93;2.65;;;21.00;99.90;;;;;;5087213;28;20075;-77
2023/07/04 08:59:59;;;;;;;8.02;2.30;;;21.10;99.60;;;;;;5077782;28;20031;-78
2023/07/04 09:02:44;;;;;;;7.50;2.70;;;21.20;99.40;;;;;;5091365;28;20517;-78
2023/07/04 09:05:35;;;;;;;8.70;2.80;;;21.40;98.60;;;;;;5082985;28;20042;-77
2023/07/04 09:08:30;;;;;;;12.15;2.67;;;21.40;98.10;;;;;;5086385;28;20121;-78
2023/07/04 09:11:01;;;;;;;9.25;2.65;;;21.50;97.90;;;;;;5093318;28;20020;-79
2023/07/04 09:13:31;;;;;;;10.82;2.58;;;21.60;97.50;;;;;;5080694;28;20029;-78
2023/07/04 09:16:01;;;;;;;6.32;2.20;;;21.60;97.40;;;;;;5079301;28;20035;-79
2023/07/04 09:18:48;;;;;;;11.02;2.80;;;21.60;97.50;;;;;;5073151;28;20028;-77
2023/07/04 09:21:19;;;;;;;9.88;2.85;;;21.60;97.30;;;;;;5080058;28;20027;-78
2023/07/04 09:23:46;;;;;;;6.32;2.80;;;21.70;97.10;;;;;;5073632;28;20116;-78
2023/07/04 09:26:16;;;;;;;10.32;2.92;;;21.70;97.10;;;;;;5072917;28;20039;-77
2023/07/04 09:28:44;;;;;;;9.80;3.63;;;21.70;97.10;;;;;;5080632;28;20522;-78
2023/07/04 09:31:20;;;;;;;5.45;2.60;;;21.80;96.60;;;;;;5071365;28;20016;-78
2023/07/04 09:33:49;;;;;;;10.55;2.97;;;21.80;96.40;;;;;;5071083;28;20040;-77
2023/07/04 09:36:16;;;;;;;7.25;3.08;;;21.90;96.10;;;;;;5090896;28;20020;-77
2023/07/04 09:39:05;;;;;;;7.60;3.05;;;22.00;95.80;;;;;;5078920;28;20461;-79
2023/07/04 09:41:33;;;;;;;7.75;2.38;;;22.00;95.60;;;;;;5072628;28;20044;-78
2023/07/04 09:44:11;;;;;;;10.48;2.95;;;22.10;95.70;;;;;;5073812;28;20037;-78
2023/07/04 09:46:38;;;;;;;7.50;2.65;;;22.10;95.30;;;;;;5054079;28;20485;-78
2023/07/04 09:49:19;;;;;;;8.85;2.78;;;22.20;95.30;;;;;;5076591;28;20055;-78
2023/07/04 09:52:13;;;;;;;6.03;2.65;;;22.30;94.10;;;;;;5077661;28;20028;-77
2023/07/04 09:54:41;;;;;;;9.02;2.80;;;22.50;94.10;;;;;;5053622;28;20131;-79
2023/07/04 09:57:28;;;;;;;9.35;3.13;;;22.60;92.60;;;;;;5072252;28;20019;-79
2023/07/04 10:00:12;;;;;;;7.40;2.97;;;22.60;92.30;;;;;;5081853;28;20111;-82
2023/07/04 10:02:38;;;;;;;7.78;2.65;;;22.80;92.70;;;;;;5071881;28;20032;-80
2023/07/04 10:05:04;;;;;;;6.75;2.80;;;22.70;92.10;;;;;;5076447;28;20024;-84
2023/07/04 10:07:29;;;;;;;7.82;2.85;;;22.80;90.70;;;;;;5092275;28;20369;-80
2023/07/04 10:10:04;;;;;;;7.70;2.80;;;22.70;87.00;;;;;;5081344;28;20024;-78
2023/07/04 10:12:41;;;;;;;8.68;2.78;;;22.70;87.20;;;;;;5051513;28;20458;-77
2023/07/04 10:15:07;;;;;;;5.82;2.97;;;22.70;89.30;;;;;;5080621;28;20500;-77
2023/07/04 10:17:35;;;;;;;5.63;2.50;;;22.70;89.80;;;;;;5073842;28;20098;-78
2023/07/04 10:20:08;;;;;;;7.32;2.83;;;22.90;90.00;;;;;;5091453;28;20612;-78
2023/07/04 10:22:45;;;;;;;8.20;3.00;;;23.00;88.90;;;;;;5077147;28;20023;-78
2023/07/04 10:25:17;;;;;;;5.95;2.95;;;23.10;85.10;;;;;;5084482;28;20028;-78
2023/07/04 10:27:47;;;;;;;5.90;2.58;;;23.20;86.60;;;;;;5078811;28;20107;-83
2023/07/04 10:30:16;;;;;;;6.95;3.00;;;23.30;85.10;;;;;;5074831;28;20070;-74
2023/07/04 10:32:48;;;;;;;7.35;2.20;;;23.30;85.30;;;;;;5067701;28;20035;-75
2023/07/04 10:35:19;;;;;;;5.60;2.67;;;23.40;84.20;;;;;;5070924;28;20170;-75
2023/07/04 10:37:52;;;;;;;6.18;2.75;;;23.50;83.60;;;;;;5073178;28;20058;-78
2023/07/04 10:40:20;;;;;;;6.32;2.70;;;23.60;82.70;;;;;;5075467;28;20154;-80
2023/07/04 10:43:21;;;;;;;8.00;2.67;;;23.80;84.40;;;;;;5088159;28;20051;-80
2023/07/04 10:45:47;;;;;;;6.25;2.50;;;24.00;82.20;;;;;;5074265;28;20131;-80
2023/07/04 10:48:16;;;;;;;5.90;2.70;;;23.90;82.20;;;;;;5078485;28;20024;-79
2023/07/04 10:50:56;;;;;;;4.90;2.13;;;24.00;82.60;;;;;;5071046;28;20165;-81
2023/07/04 10:53:22;;;;;;;8.75;2.70;;;24.00;79.30;;;;;;5083534;28;20020;-80
2023/07/04 10:55:54;;;;;;;8.30;2.50;;;24.00;81.30;;;;;;5084495;28;20039;-80
2023/07/04 10:58:23;;;;;;;7.57;2.92;;;24.10;80.60;;;;;;5088340;28;20453;-80
2023/07/04 11:00:59;;;;;;;6.38;2.80;;;24.20;81.80;;;;;;5090673;28;20016;-81
2023/07/04 11:03:44;;;;;;;10.13;2.78;;;24.20;80.70;;;;;;5077929;28;20031;-87
2023/07/04 11:06:16;;;;;;;5.93;2.60;;;24.30;80.70;;;;;;5082734;28;20029;-78
2023/07/04 11:08:43;;;;;;;6.10;2.88;;;24.30;77.70;;;;;;5089808;28;20023;-83
2023/07/04 11:11:13;;;;;;;7.20;2.95;;;24.30;78.90;;;;;;5084658;28;20381;-78
2023/07/04 11:13:50;;;;;;;6.53;3.00;;;24.40;79.40;;;;;;5076039;28;20182;-76
2023/07/04 11:16:19;;;;;;;8.00;3.00;;;24.40;77.50;;;;;;5071710;28;20021;-77
2023/07/04 11:19:07;;;;;;;7.55;3.30;;;24.30;77.40;;;;;;5075484;28;20023;-78
2023/07/04 11:21:52;;;;;;;8.45;2.55;;;24.30;78.00;;;;;;5071498;28;20020;-77
2023/07/04 11:24:19;;;;;;;7.28;2.92;;;24.40;78.50;;;;;;5074750;28;20580;-78
2023/07/04 11:26:58;;;;;;;7.70;2.65;;;24.50;77.00;;;;;;5071964;28;20150;-80
2023/07/04 11:29:24;;;;;;;5.68;2.30;;;24.50;75.80;;;;;;5091572;28;20146;-77
2023/07/04 11:32:21;;;;;;;5.85;2.70;;;24.60;75.70;;;;;;5075354;28;20470;-76
2023/07/04 11:34:53;;;;;;;3.78;2.30;;;24.60;75.10;;;;;;5074738;28;20074;-76
2023/07/04 11:37:45;;;;;;;7.13;2.78;;;24.60;75.00;;;;;;5071863;28;20405;-77
2023/07/04 11:40:19;;;;;;;7.20;2.90;;;24.60;73.60;;;;;;5074302;28;20483;-77
2023/07/04 11:42:52;;;;;;;6.22;2.40;;;24.60;73.90;;;;;;5092344;28;20082;-78
2023/07/04 11:45:23;;;;;;;7.78;2.90;;;24.70;75.50;;;;;;5089510;28;20032;-77
2023/07/04 11:48:04;;;;;;;7.30;2.70;;;24.80;75.80;;;;;;5086345;28;20024;-77
2023/07/04 11:50:39;;;;;;;6.38;2.28;;;24.90;74.10;;;;;;5052453;28;20450;-77
2023/07/04 11:53:15;;;;;;;6.85;2.60;;;24.90;73.40;;;;;;5053180;28;20108;-78
2023/07/04 11:55:41;;;;;;;6.97;2.70;;;24.90;73.30;;;;;;5063338;28;20021;-77
2023/07/04 11:58:06;;;;;;;6.63;2.97;;;24.90;73.50;;;;;;5074999;28;20077;-78
2023/07/04 12:00:38;;;;;;;7.70;2.53;;;24.90;73.40;;;;;;5083181;28;20025;-78
2023/07/04 12:03:21;;;;;;;9.75;3.58;;;25.10;73.60;;;;;;5082627;28;20020;-79
2023/07/04 12:05:56;;;;;;;7.43;2.85;;;25.30;73.10;;;;;;5075629;28;20028;-79
2023/07/04 12:08:34;;;;;;;6.53;2.50;;;25.20;72.50;;;;;;5074831;28;20450;-78
2023/07/04 12:11:19;;;;;;;5.93;2.30;;;25.20;73.00;;;;;;5089309;28;20338;-78
2023/07/04 12:13:48;;;;;;;7.03;2.08;;;25.20;72.20;;;;;;5089803;28;20028;-79
2023/07/04 12:16:21;;;;;;;4.75;2.03;;;25.30;70.30;;;;;;5075536;28;20150;-77
2023/07/04 12:18:47;;;;;;;5.45;2.90;;;25.40;71.30;;;;;;5073888;28;20032;-78
2023/07/04 12:21:19;;;;;;;5.65;2.47;;;25.60;73.60;;;;;;5075045;28;20028;-78
2023/07/04 12:23:46;;;;;;;5.13;2.50;;;25.70;71.80;;;;;;5088352;28;20021;-81
2023/07/04 12:26:18;;;;;;;5.22;2.53;;;25.70;70.50;;;;;;5081189;28;20028;-78
2023/07/04 12:28:46;;;;;;;6.43;2.20;;;25.60;68.80;;;;;;5075529;28;20017;-79
2023/07/04 12:31:14;;;;;;;8.48;2.40;;;25.60;69.60;;;;;;5082741;28;20224;-79
2023/07/04 12:33:44;;;;;;;6.53;2.60;;;25.50;69.40;;;;;;5077426;28;20020;-78
2023/07/04 12:36:15;;;;;;;7.32;2.83;;;25.50;69.90;;;;;;5073206;28;20029;-78
2023/07/04 12:38:43;;;;;;;;;;;25.40;70.20;;;;;;5090106;28;20020;-78
2023/07/04 12:41:09;;;;;;;5.25;2.50;;;25.40;69.60;;;;;;5090541;28;19911;-78
2023/07/04 12:43:37;;;;;;;5.70;2.53;;;25.30;70.60;;;;;;5084274;28;20028;-78
2023/07/04 12:46:19;;;;;;;5.00;2.35;;;25.20;71.00;;;;;;5083950;28;20449;-77
2023/07/04 12:48:45;;;;;;;5.22;2.28;;;25.20;70.20;;;;;;5083924;28;20357;-79
2023/07/04 12:51:15;;;;;;;6.82;2.47;;;25.00;69.70;;;;;;5077664;28;20477;-78
2023/07/04 12:53:42;;;;;;;8.02;3.92;;;25.00;70.40;;;;;;5074464;28;20073;-78
2023/07/04 12:56:10;;;;;;;7.03;2.83;;;25.00;70.50;;;;;;5074881;28;20029;-78
2023/07/04 12:58:40;;;;;;;4.85;2.55;;;25.10;70.90;;;;;;5072619;28;20016;-78